Time;durP1;ratioP1;P1;durP2;ratioP2;P2;SDS_P1;SDS_P2;PMS_P1;PMS_P2;Temp;Humidity;BMP_temperature;BMP_pressure;BME280_temperature;BME280_humidity;BME280_pressure;Samples;Min_cycle;Max_cycle;Signal;HPM_P1;HPM_P2
2021/04/18 00:01:28;;;;;;;17.93;12.27;;;4.40;99.90;;;;;;4988898;28;20274;-75
2021/04/18 00:03:55;;;;;;;19.37;12.17;;;4.50;99.90;;;;;;4986530;28;20765;-74
2021/04/18 00:06:21;;;;;;;20.50;11.90;;;4.50;99.90;;;;;;4986638;28;20197;-74
2021/04/18 00:08:48;;;;;;;24.60;12.90;;;4.60;99.90;;;;;;4986423;28;20198;-73
2021/04/18 00:11:15;;;;;;;16.40;11.37;;;4.70;99.90;;;;;;4981462;28;20248;-74
2021/04/18 00:13:42;;;;;;;16.97;11.50;;;4.80;99.90;;;;;;4990153;28;20562;-72
2021/04/18 00:16:08;;;;;;;17.30;11.30;;;4.80;99.90;;;;;;4989815;28;20201;-72
2021/04/18 00:18:36;;;;;;;20.10;11.33;;;4.80;99.90;;;;;;4988263;28;20202;-75
2021/04/18 00:21:02;;;;;;;16.30;10.03;;;4.90;99.90;;;;;;4989566;28;20194;-68
2021/04/18 00:23:29;;;;;;;17.67;9.93;;;5.00;99.90;;;;;;4988560;28;20256;-68
2021/04/18 00:25:55;;;;;;;17.63;10.27;;;5.00;99.90;;;;;;4990192;28;20193;-70
2021/04/18 00:28:22;;;;;;;17.50;9.90;;;5.10;99.90;;;;;;4988226;28;20201;-69
2021/04/18 00:30:50;;;;;;;16.70;9.73;;;5.20;99.90;;;;;;4988329;28;20229;-72
2021/04/18 00:33:16;;;;;;;18.73;10.23;;;5.20;99.90;;;;;;4990011;28;20214;-71
2021/04/18 00:35:44;;;;;;;17.40;10.10;;;5.20;99.90;;;;;;4989988;28;20228;-72
2021/04/18 00:38:10;;;;;;;16.20;9.83;;;5.30;99.90;;;;;;4990139;28;20209;-72
2021/04/18 00:40:38;;;;;;;13.90;8.90;;;5.30;99.90;;;;;;4987209;28;20697;-71
2021/04/18 00:43:05;;;;;;;14.93;9.83;;;5.30;99.90;;;;;;4989587;28;20247;-70
2021/04/18 00:45:32;;;;;;;13.27;9.40;;;5.30;99.90;;;;;;4988808;28;20668;-72
2021/04/18 00:48:00;;;;;;;16.83;9.70;;;5.40;99.90;;;;;;4985729;28;20202;-68
2021/04/18 00:50:29;;;;;;;13.63;8.57;;;5.40;99.90;;;;;;4986217;28;20271;-70
2021/04/18 00:52:57;;;;;;;14.60;9.03;;;5.30;99.90;;;;;;4990344;28;20260;-68
2021/04/18 00:55:26;;;;;;;15.67;9.67;;;5.30;99.90;;;;;;4989545;28;20248;-75
2021/04/18 00:57:52;;;;;;;11.53;8.67;;;5.30;99.90;;;;;;4989561;28;20201;-75
2021/04/18 01:00:20;;;;;;;11.83;7.97;;;5.20;99.90;;;;;;4988763;28;20202;-72
2021/04/18 01:02:46;;;;;;;13.50;8.13;;;5.20;99.90;;;;;;4987067;28;20232;-65
2021/04/18 01:05:14;;;;;;;12.20;9.10;;;5.20;99.90;;;;;;4989745;28;20209;-72
2021/04/18 01:07:41;;;;;;;13.63;8.60;;;5.20;99.90;;;;;;4987763;28;20201;-73
2021/04/18 01:10:10;;;;;;;11.50;7.83;;;5.20;99.90;;;;;;4988214;28;20201;-73
2021/04/18 01:12:37;;;;;;;13.67;8.43;;;5.20;99.90;;;;;;4986435;28;20260;-73
2021/04/18 01:15:05;;;;;;;16.93;9.10;;;5.20;99.90;;;;;;4988105;28;20625;-68
2021/04/18 01:17:31;;;;;;;13.70;9.87;;;5.20;99.90;;;;;;4987702;28;20231;-65
2021/04/18 01:19:58;;;;;;;13.37;8.90;;;5.30;99.90;;;;;;4988982;28;20212;-62
2021/04/18 01:22:25;;;;;;;13.87;9.63;;;5.30;99.90;;;;;;4989066;28;20201;-66
2021/04/18 01:24:51;;;;;;;14.63;9.40;;;5.30;99.90;;;;;;4988865;28;20709;-73
2021/04/18 01:27:20;;;;;;;16.90;9.57;;;5.40;99.90;;;;;;4987016;28;20568;-71
2021/04/18 01:29:46;;;;;;;16.27;8.80;;;5.40;99.90;;;;;;4989202;28;20229;-68
2021/04/18 01:32:13;;;;;;;12.73;8.67;;;5.40;99.90;;;;;;4985204;28;20749;-68
2021/04/18 01:34:41;;;;;;;18.93;8.93;;;5.40;99.90;;;;;;4989428;28;20208;-72
2021/04/18 01:37:08;;;;;;;11.73;8.53;;;5.40;99.90;;;;;;4987670;28;20205;-69
2021/04/18 01:39:35;;;;;;;11.07;8.77;;;5.40;99.90;;;;;;4989544;28;20205;-73
2021/04/18 01:42:02;;;;;;;15.33;8.67;;;5.40;99.90;;;;;;4989662;28;20198;-72
2021/04/18 01:44:29;;;;;;;18.50;8.27;;;5.40;99.90;;;;;;4996845;28;20202;-71
2021/04/18 01:46:56;;;;;;;10.40;8.20;;;5.40;99.90;;;;;;4987042;28;20293;-75
2021/04/18 01:49:22;;;;;;;14.20;8.70;;;5.40;99.90;;;;;;4986922;28;20202;-67
2021/04/18 01:51:49;;;;;;;14.20;8.30;;;5.30;99.90;;;;;;4988070;28;20208;-73
2021/04/18 01:54:15;;;;;;;14.50;7.67;;;5.30;99.90;;;;;;4987703;28;20269;-70
2021/04/18 01:56:42;;;;;;;15.57;7.67;;;5.30;99.90;;;;;;4988846;28;20237;-73
2021/04/18 01:59:09;;;;;;;10.50;7.10;;;5.30;99.90;;;;;;4991978;28;20210;-64
2021/04/18 02:01:38;;;;;;;11.47;8.00;;;5.30;99.90;;;;;;4991765;28;20201;-72
2021/04/18 02:04:18;;;;;;;17.47;7.87;;;5.30;99.90;;;;;;4992151;28;20198;-74
2021/04/18 02:06:45;;;;;;;14.33;7.37;;;5.30;99.90;;;;;;4989521;28;20568;-73
2021/04/18 02:09:11;;;;;;;13.77;8.07;;;5.30;99.90;;;;;;4991610;28;20706;-73
2021/04/18 02:11:38;;;;;;;14.77;8.10;;;5.30;99.90;;;;;;4992192;28;20201;-74
2021/04/18 02:14:06;;;;;;;11.83;7.77;;;5.20;99.90;;;;;;4992407;28;20229;-73
2021/04/18 02:16:33;;;;;;;14.10;8.40;;;5.20;99.90;;;;;;4990119;28;20208;-68
2021/04/18 02:18:59;;;;;;;13.60;7.97;;;5.20;99.90;;;;;;4991823;28;20198;-66
2021/04/18 02:21:26;;;;;;;10.07;7.33;;;5.20;99.90;;;;;;4992638;28;20570;-71
2021/04/18 02:23:52;;;;;;;11.17;7.60;;;5.20;99.90;;;;;;4992047;28;20205;-67
2021/04/18 02:26:18;;;;;;;13.73;8.80;;;5.30;99.90;;;;;;4992034;28;20194;-68
2021/04/18 02:28:45;;;;;;;13.73;8.10;;;5.30;99.90;;;;;;4991318;28;20562;-74
2021/04/18 02:31:12;;;;;;;15.50;8.17;;;5.40;99.90;;;;;;4990261;28;20229;-74
2021/04/18 02:33:39;;;;;;;12.60;8.80;;;5.40;99.90;;;;;;4987874;28;20229;-75
2021/04/18 02:36:07;;;;;;;13.03;7.37;;;5.40;99.90;;;;;;4990726;28;20210;-76
2021/04/18 02:38:33;;;;;;;14.30;8.00;;;5.40;99.90;;;;;;4990760;28;20240;-74
2021/04/18 02:41:00;;;;;;;14.03;8.23;;;5.40;99.90;;;;;;4992056;28;20202;-71
2021/04/18 02:43:26;;;;;;;11.47;7.87;;;5.40;99.90;;;;;;4990740;28;20224;-73
2021/04/18 02:45:53;;;;;;;15.13;8.87;;;5.40;99.90;;;;;;4990933;28;20205;-73
2021/04/18 02:48:20;;;;;;;15.13;7.80;;;5.40;99.90;;;;;;4990480;28;20201;-72
2021/04/18 02:50:46;;;;;;;12.53;8.03;;;5.40;99.90;;;;;;4990493;28;20229;-64
2021/04/18 02:53:13;;;;;;;12.33;7.80;;;5.40;99.90;;;;;;4992388;28;20233;-65
2021/04/18 02:55:39;;;;;;;11.13;8.20;;;5.40;99.90;;;;;;4992176;28;20670;-69
2021/04/18 02:58:06;;;;;;;11.53;7.80;;;5.40;99.90;;;;;;4992263;28;20193;-73
2021/04/18 03:00:32;;;;;;;13.00;8.13;;;5.40;99.90;;;;;;4990878;28;20293;-67
2021/04/18 03:02:59;;;;;;;13.50;7.77;;;5.30;99.90;;;;;;4991432;28;20210;-74
2021/04/18 03:05:26;;;;;;;12.70;7.40;;;5.30;99.90;;;;;;4991439;28;20197;-74
2021/04/18 03:07:53;;;;;;;12.27;7.97;;;5.20;99.90;;;;;;4992188;28;20202;-72
2021/04/18 03:10:19;;;;;;;14.93;8.07;;;5.20;99.90;;;;;;4991102;28;20202;-74
2021/04/18 03:12:46;;;;;;;11.53;7.40;;;5.10;99.90;;;;;;4991397;28;20253;-72
2021/04/18 03:15:13;;;;;;;10.80;7.57;;;5.00;99.90;;;;;;4992083;28;20562;-74
2021/04/18 03:17:39;;;;;;;12.60;7.00;;;5.00;99.90;;;;;;4992163;28;20194;-71
2021/04/18 03:20:07;;;;;;;9.23;6.90;;;4.90;99.90;;;;;;4992047;28;20271;-75
2021/04/18 03:22:34;;;;;;;15.27;7.60;;;4.80;99.90;;;;;;4988556;28;20202;-73
2021/04/18 03:25:01;;;;;;;9.13;6.93;;;4.70;99.90;;;;;;4991914;28;20569;-70
2021/04/18 03:27:27;;;;;;;12.70;7.40;;;4.60;99.90;;;;;;4990735;28;20208;-73
2021/04/18 03:29:54;;;;;;;10.87;7.00;;;4.40;99.90;;;;;;4991726;28;20260;-75
2021/04/18 03:32:20;;;;;;;11.27;7.07;;;4.30;99.90;;;;;;4989904;28;20233;-72
2021/04/18 03:34:47;;;;;;;12.80;6.70;;;4.20;99.90;;;;;;4990313;28;20202;-73
2021/04/18 03:37:13;;;;;;;9.97;6.80;;;4.00;99.90;;;;;;4991631;28;20193;-72
2021/04/18 03:39:41;;;;;;;10.90;7.20;;;4.00;99.90;;;;;;4989720;28;20264;-74
2021/04/18 03:42:08;;;;;;;12.73;7.83;;;3.90;99.90;;;;;;4977917;28;20225;-74
2021/04/18 03:44:35;;;;;;;11.20;6.60;;;3.80;99.90;;;;;;4978134;28;20202;-74
2021/04/18 03:47:02;;;;;;;12.17;7.47;;;3.70;99.90;;;;;;4981667;28;20205;-74
2021/04/18 03:49:28;;;;;;;11.03;7.03;;;3.60;99.90;;;;;;4978115;28;20237;-74
2021/04/18 03:51:54;;;;;;;11.57;7.83;;;3.50;99.90;;;;;;4977457;28;20248;-75
2021/04/18 03:54:22;;;;;;;8.80;7.30;;;3.50;99.90;;;;;;4979397;28;20241;-75
2021/04/18 03:56:49;;;;;;;14.53;7.70;;;3.40;99.90;;;;;;4981344;28;20642;-73
2021/04/18 03:59:16;;;;;;;11.20;7.30;;;3.30;99.90;;;;;;4988933;28;20225;-70
2021/04/18 04:01:43;;;;;;;13.00;7.73;;;3.20;99.90;;;;;;4979077;28;20190;-72
2021/04/18 04:04:09;;;;;;;10.80;7.43;;;3.10;99.90;;;;;;4979555;28;20228;-73
2021/04/18 04:06:36;;;;;;;14.60;8.60;;;3.00;99.90;;;;;;4978420;28;20818;-73
2021/04/18 04:09:03;;;;;;;10.30;8.17;;;3.00;99.90;;;;;;4977216;28;20202;-73
2021/04/18 04:11:29;;;;;;;11.77;7.53;;;3.00;99.90;;;;;;4979477;28;20201;-73
2021/04/18 04:13:57;;;;;;;21.80;8.40;;;3.00;99.90;;;;;;4976904;28;20234;-74
2021/04/18 04:16:24;;;;;;;14.03;8.27;;;3.10;99.90;;;;;;4978869;28;20229;-73
2021/04/18 04:18:50;;;;;;;10.83;8.27;;;3.10;99.90;;;;;;4978748;28;20240;-72
2021/04/18 04:21:16;;;;;;;13.60;8.63;;;3.10;99.90;;;;;;4983545;28;20194;-73
2021/04/18 04:23:43;;;;;;;16.80;9.33;;;3.10;99.90;;;;;;4989572;28;20208;-73
2021/04/18 04:26:10;;;;;;;14.57;9.00;;;3.20;99.90;;;;;;4981674;28;20354;-74
2021/04/18 04:28:37;;;;;;;15.27;9.43;;;3.20;99.90;;;;;;4977000;28;20202;-75
2021/04/18 04:31:04;;;;;;;16.03;8.90;;;3.30;99.90;;;;;;4974992;28;20332;-75
2021/04/18 04:33:34;;;;;;;15.03;9.40;;;3.30;99.90;;;;;;4973185;28;20288;-74
2021/04/18 04:36:01;;;;;;;19.60;10.10;;;3.30;99.90;;;;;;4979321;28;20206;-74
2021/04/18 04:38:27;;;;;;;19.47;11.67;;;3.40;99.90;;;;;;4982087;28;20202;-74
2021/04/18 04:40:54;;;;;;;19.67;11.07;;;3.40;99.90;;;;;;4981108;28;20197;-74
2021/04/18 04:43:20;;;;;;;17.67;11.17;;;3.40;99.90;;;;;;4976080;28;20271;-74
2021/04/18 04:45:47;;;;;;;14.40;10.20;;;3.50;99.90;;;;;;4977880;28;20205;-73
2021/04/18 04:48:14;;;;;;;17.80;11.43;;;3.40;99.90;;;;;;4978478;28;20202;-74
2021/04/18 04:50:40;;;;;;;14.40;10.17;;;3.50;99.90;;;;;;4980759;28;20228;-75
2021/04/18 04:53:07;;;;;;;11.33;9.67;;;3.50;99.90;;;;;;4981173;28;20225;-75
2021/04/18 04:55:33;;;;;;;12.80;9.77;;;3.50;99.90;;;;;;4978714;28;20694;-74
2021/04/18 04:58:00;;;;;;;16.73;9.93;;;3.50;99.90;;;;;;4974046;28;20816;-69
2021/04/18 05:00:26;;;;;;;15.33;10.80;;;3.60;99.90;;;;;;4978030;28;20221;-75
2021/04/18 05:02:53;;;;;;;14.13;10.10;;;3.60;99.90;;;;;;4980073;28;20198;-74
2021/04/18 05:05:20;;;;;;;13.30;9.43;;;3.70;99.90;;;;;;4977285;28;20238;-75
2021/04/18 05:07:47;;;;;;;13.53;10.07;;;3.70;99.90;;;;;;4982308;28;20200;-74
2021/04/18 05:10:13;;;;;;;14.20;9.80;;;3.80;99.90;;;;;;4975964;28;20210;-71
2021/04/18 05:12:40;;;;;;;12.63;9.60;;;3.80;99.90;;;;;;4977500;28;20221;-74
2021/04/18 05:15:08;;;;;;;16.27;9.97;;;3.90;99.90;;;;;;4991933;28;20209;-67
2021/04/18 05:17:34;;;;;;;13.23;10.37;;;4.00;99.90;;;;;;4980918;28;20205;-71
2021/04/18 05:20:01;;;;;;;15.90;10.07;;;4.10;99.90;;;;;;4980378;28;20202;-71
2021/04/18 05:22:28;;;;;;;17.27;11.33;;;4.30;99.90;;;;;;4977553;28;20958;-74
2021/04/18 05:24:55;;;;;;;17.13;10.73;;;4.40;99.90;;;;;;4980709;28;20240;-75
2021/04/18 05:27:21;;;;;;;16.67;11.30;;;4.50;99.90;;;;;;4989464;28;20213;-73
2021/04/18 05:29:48;;;;;;;18.80;10.77;;;4.70;99.90;;;;;;4978843;28;20252;-68
2021/04/18 05:32:14;;;;;;;19.77;12.03;;;4.90;99.90;;;;;;4978773;28;20238;-73
2021/04/18 05:34:41;;;;;;;19.37;11.40;;;5.30;99.90;;;;;;4979334;28;20265;-75
2021/04/18 05:37:07;;;;;;;14.47;11.50;;;5.90;99.90;;;;;;4978045;28;20201;-74
2021/04/18 05:39:34;;;;;;;21.17;10.83;;;6.90;99.90;;;;;;4978291;28;20202;-73
2021/04/18 05:42:01;;;;;;;13.83;8.30;;;7.60;99.90;;;;;;4976285;28;20202;-68
2021/04/18 05:44:27;;;;;;;10.57;5.93;;;8.30;99.90;;;;;;4977273;28;20224;-74
2021/04/18 05:46:54;;;;;;;8.00;5.03;;;9.10;99.90;;;;;;4978840;28;20225;-73
2021/04/18 05:49:20;;;;;;;10.23;5.13;;;9.80;99.90;;;;;;4977477;28;20724;-71
2021/04/18 05:51:47;;;;;;;8.40;4.10;;;10.50;99.90;;;;;;4979388;28;20428;-71
2021/04/18 05:54:13;;;;;;;7.53;4.20;;;10.90;99.90;;;;;;4976543;28;20265;-73
2021/04/18 05:56:40;;;;;;;10.63;4.20;;;11.20;99.90;;;;;;4979861;28;20202;-67
2021/04/18 05:59:07;;;;;;;5.73;3.67;;;11.60;99.90;;;;;;4977363;28;20316;-73
2021/04/18 06:01:33;;;;;;;10.63;4.10;;;12.00;99.90;;;;;;4979833;28;20252;-72
2021/04/18 06:04:00;;;;;;;7.77;3.90;;;12.30;99.90;;;;;;4978676;28;20234;-73
2021/04/18 06:06:26;;;;;;;7.43;3.63;;;12.60;99.90;;;;;;4977736;28;20350;-71
2021/04/18 06:08:54;;;;;;;3.43;3.13;;;12.90;99.90;;;;;;4978508;28;20198;-72
2021/04/18 06:11:21;;;;;;;5.47;3.70;;;13.10;99.90;;;;;;4979417;28;20201;-72
2021/04/18 06:13:49;;;;;;;7.60;3.40;;;13.40;99.90;;;;;;4978148;28;20233;-71
2021/04/18 06:16:16;;;;;;;9.40;4.00;;;13.60;99.90;;;;;;4978029;28;20248;-73
2021/04/18 06:18:42;;;;;;;7.57;3.80;;;13.80;99.90;;;;;;4978676;28;20229;-73
2021/04/18 06:21:09;;;;;;;6.27;3.57;;;13.90;99.90;;;;;;4974235;28;20206;-72
2021/04/18 06:23:35;;;;;;;6.07;3.47;;;14.10;99.90;;;;;;4974444;28;20205;-71
2021/04/18 06:26:02;;;;;;;8.63;3.97;;;14.40;99.90;;;;;;4987636;28;20248;-66
2021/04/18 06:28:29;;;;;;;8.37;4.03;;;14.50;99.90;;;;;;4989117;28;20225;-75
2021/04/18 06:30:56;;;;;;;5.53;4.00;;;14.40;99.90;;;;;;4987873;28;20229;-74
2021/04/18 06:33:23;;;;;;;6.43;3.57;;;14.30;99.90;;;;;;4988623;28;20291;-71
2021/04/18 06:35:49;;;;;;;8.37;3.90;;;14.20;99.90;;;;;;4988025;28;20198;-74
2021/04/18 06:38:16;;;;;;;9.00;3.97;;;13.90;99.90;;;;;;4989025;28;20314;-75
2021/04/18 06:40:43;;;;;;;10.03;4.10;;;14.00;99.90;;;;;;4989073;28;20735;-75
2021/04/18 06:43:11;;;;;;;8.03;3.73;;;14.10;99.90;;;;;;4988131;28;20208;-66
2021/04/18 06:45:39;;;;;;;6.83;3.70;;;14.00;99.90;;;;;;4990742;28;20400;-74
2021/04/18 06:48:07;;;;;;;9.50;3.90;;;13.80;99.90;;;;;;4992306;28;20237;-74
2021/04/18 06:50:34;;;;;;;7.10;4.37;;;13.90;99.90;;;;;;4992539;28;21036;-69
2021/04/18 06:53:00;;;;;;;8.27;3.60;;;13.90;99.90;;;;;;4990414;28;20287;-74
2021/04/18 06:55:27;;;;;;;6.97;3.63;;;14.30;99.90;;;;;;4991800;28;20202;-70
2021/04/18 06:57:53;;;;;;;7.03;3.57;;;13.90;99.90;;;;;;4988403;28;20194;-67
2021/04/18 07:00:21;;;;;;;12.23;3.97;;;13.40;99.90;;;;;;4989731;28;20224;-73
2021/04/18 07:02:47;;;;;;;9.03;4.03;;;12.90;99.90;;;;;;4991024;28;20208;-70
2021/04/18 07:05:16;;;;;;;8.67;4.40;;;12.50;99.90;;;;;;4991939;28;20194;-68
2021/04/18 07:07:44;;;;;;;8.47;4.83;;;12.10;99.90;;;;;;4992472;28;20211;-73
2021/04/18 07:10:13;;;;;;;8.13;4.73;;;11.90;99.90;;;;;;4996687;28;20205;-74
2021/04/18 07:12:42;;;;;;;7.50;5.20;;;11.60;99.90;;;;;;4996940;28;20260;-66
2021/04/18 07:15:09;;;;;;;11.30;6.20;;;11.20;99.90;;;;;;4992116;28;20190;-70
2021/04/18 07:17:47;;;;;;;10.03;6.50;;;11.00;99.90;;;;;;4992121;28;20206;-74
2021/04/18 07:20:17;;;;;;;8.13;5.57;;;10.80;99.90;;;;;;4992029;28;20624;-74
2021/04/18 07:22:43;;;;;;;8.67;5.30;;;11.20;99.90;;;;;;4991504;28;20197;-65
2021/04/18 07:25:10;;;;;;;9.90;5.57;;;11.40;99.90;;;;;;4981713;28;20201;-66
2021/04/18 07:27:45;;;;;;;8.07;5.60;;;11.40;99.90;;;;;;4981652;28;20244;-72
2021/04/18 07:30:13;;;;;;;10.53;5.07;;;11.30;99.90;;;;;;4991011;28;20278;-70
2021/04/18 07:32:39;;;;;;;13.20;5.60;;;11.10;99.90;;;;;;4991421;28;20225;-69
2021/04/18 07:35:07;;;;;;;11.97;5.47;;;10.90;99.90;;;;;;4992350;28;20205;-65
2021/04/18 07:37:35;;;;;;;10.57;5.77;;;10.80;99.90;;;;;;4992128;28;20202;-70
2021/04/18 07:40:03;;;;;;;10.97;5.13;;;10.80;99.90;;;;;;4990645;28;20304;-69
2021/04/18 07:42:35;;;;;;;7.40;4.90;;;11.20;99.90;;;;;;4991483;28;20205;-67
2021/04/18 07:45:04;;;;;;;8.63;4.43;;;11.60;99.90;;;;;;4991932;28;20197;-70
2021/04/18 07:47:34;;;;;;;8.87;4.40;;;12.50;99.90;;;;;;4991658;28;20194;-69
2021/04/18 07:50:01;;;;;;;8.27;4.67;;;13.20;99.90;;;;;;4990585;28;20647;-70
2021/04/18 07:52:30;;;;;;;7.57;4.80;;;13.40;99.90;;;;;;4991320;28;20205;-68
2021/04/18 07:54:58;;;;;;;9.53;5.20;;;13.30;99.90;;;;;;4989732;28;20225;-69
2021/04/18 07:57:24;;;;;;;7.93;4.70;;;12.90;99.90;;;;;;4991289;28;20206;-71
2021/04/18 07:59:51;;;;;;;8.10;4.80;;;12.40;99.90;;;;;;5010934;28;20217;-71
2021/04/18 08:02:20;;;;;;;9.70;5.20;;;12.40;99.90;;;;;;4986282;28;20233;-68
2021/04/18 08:04:50;;;;;;;6.50;4.17;;;12.40;99.90;;;;;;4995602;28;20276;-69
2021/04/18 08:07:17;;;;;;;7.17;4.40;;;13.30;99.90;;;;;;5010288;28;20647;-71
2021/04/18 08:09:43;;;;;;;8.47;3.90;;;14.70;99.90;;;;;;4999708;28;20205;-70
2021/04/18 08:12:13;;;;;;;6.57;4.17;;;16.00;99.90;;;;;;4987883;28;20217;-71
2021/04/18 08:14:42;;;;;;;7.43;3.90;;;17.00;99.90;;;;;;4990835;28;20646;-70
2021/04/18 08:17:11;;;;;;;7.77;3.77;;;17.80;99.90;;;;;;4990338;28;20267;-72
2021/04/18 08:19:39;;;;;;;8.23;4.05;;;18.20;99.90;;;;;;4990384;28;20198;-67
2021/04/18 08:22:05;;;;;;;6.90;3.70;;;18.40;99.90;;;;;;4990452;28;20197;-71
2021/04/18 08:24:34;;;;;;;6.15;3.35;;;19.00;99.90;;;;;;4989522;28;20272;-73
2021/04/18 08:27:03;;;;;;;8.93;3.40;;;19.00;99.90;;;;;;4985202;28;20574;-63
2021/04/18 08:29:31;;;;;;;7.53;3.80;;;19.50;99.90;;;;;;4992582;28;20201;-72
2021/04/18 08:32:15;;;;;;;8.10;3.92;;;20.10;99.90;;;;;;4984480;28;21048;-73
2021/04/18 08:34:43;;;;;;;5.47;3.42;;;20.50;99.90;;;;;;4982032;28;21712;-70
2021/04/18 08:37:18;;;;;;;6.07;3.97;;;20.60;99.90;;;;;;4988722;28;20208;-74
2021/04/18 08:39:45;;;;;;;6.53;3.47;;;20.20;99.90;;;;;;4987627;28;20248;-72
2021/04/18 08:42:25;;;;;;;6.13;3.42;;;20.50;99.90;;;;;;4977458;28;20676;-69
2021/04/18 08:44:53;;;;;;;6.93;3.30;;;20.30;99.90;;;;;;4976757;28;20472;-69
2021/04/18 08:47:21;;;;;;;6.85;3.13;;;20.00;99.90;;;;;;4978921;28;20649;-71
2021/04/18 08:49:49;;;;;;;4.88;3.05;;;19.50;99.90;;;;;;4980258;28;20205;-72
2021/04/18 08:52:21;;;;;;;5.25;2.97;;;19.50;99.90;;;;;;4977177;28;20213;-71
2021/04/18 08:54:49;;;;;;;5.60;3.50;;;19.80;99.90;;;;;;4975362;28;20221;-72
2021/04/18 08:57:17;;;;;;;8.05;3.42;;;20.10;99.90;;;;;;4976106;28;20202;-71
2021/04/18 08:59:48;;;;;;;7.65;3.47;;;20.40;99.90;;;;;;4974460;28;20223;-66
2021/04/18 09:02:16;;;;;;;6.70;3.28;;;20.50;99.90;;;;;;4977559;28;20201;-72
2021/04/18 09:04:44;;;;;;;5.25;3.35;;;20.60;99.90;;;;;;4980343;28;20213;-66
2021/04/18 09:07:13;;;;;;;6.60;3.38;;;20.80;99.90;;;;;;4978957;28;20543;-75
2021/04/18 09:09:40;;;;;;;6.05;3.45;;;21.20;99.90;;;;;;4976000;28;20228;-67
2021/04/18 09:12:08;;;;;;;5.63;3.53;;;21.40;99.90;;;;;;4979716;28;20209;-68
2021/04/18 09:14:36;;;;;;;6.35;3.22;;;21.90;99.90;;;;;;4980305;28;20225;-71
2021/04/18 09:17:16;;;;;;;5.90;3.45;;;21.90;99.90;;;;;;4982297;28;20221;-68
2021/04/18 09:19:46;;;;;;;5.35;3.63;;;21.30;99.90;;;;;;4979337;28;20209;-71
2021/04/18 09:22:14;;;;;;;6.57;3.55;;;20.90;99.90;;;;;;4977923;28;20212;-69
2021/04/18 09:24:45;;;;;;;5.32;3.70;;;21.00;99.90;;;;;;4975226;28;20205;-73
2021/04/18 09:27:16;;;;;;;7.85;3.90;;;21.00;99.90;;;;;;4978545;28;20976;-70
2021/04/18 09:29:46;;;;;;;6.72;4.07;;;21.10;99.90;;;;;;4977961;28;20812;-73
2021/04/18 09:32:15;;;;;;;8.18;4.10;;;20.90;99.90;;;;;;4978530;28;20252;-70
2021/04/18 09:34:43;;;;;;;5.47;3.15;;;21.00;99.90;;;;;;4977651;28;20259;-68
2021/04/18 09:37:14;;;;;;;6.85;3.63;;;21.00;99.90;;;;;;4977185;28;20208;-71
2021/04/18 09:39:42;;;;;;;7.60;3.47;;;20.50;99.90;;;;;;4979008;28;20202;-75
2021/04/18 09:42:10;;;;;;;5.53;3.00;;;20.50;99.90;;;;;;4980186;28;20208;-73
2021/04/18 09:44:42;;;;;;;5.63;3.38;;;20.00;99.90;;;;;;4976590;28;20204;-73
2021/04/18 09:47:19;;;;;;;5.63;3.55;;;19.70;99.90;;;;;;4973670;28;20210;-74
2021/04/18 09:49:57;;;;;;;8.90;3.75;;;19.10;99.90;;;;;;4973143;28;20205;-70
2021/04/18 09:52:29;;;;;;;5.65;4.30;;;19.10;99.90;;;;;;4975804;28;20205;-73
2021/04/18 09:55:17;;;;;;;6.30;3.60;;;19.30;99.90;;;;;;4975820;28;20881;-68
2021/04/18 09:57:46;;;;;;;8.90;3.55;;;20.20;99.90;;;;;;4977172;28;20208;-68
2021/04/18 10:00:16;;;;;;;6.45;3.60;;;20.60;99.90;;;;;;4976204;28;20236;-73
2021/04/18 10:03:00;;;;;;;4.72;3.22;;;21.00;99.90;;;;;;4974509;28;20198;-74
2021/04/18 10:05:27;;;;;;;10.45;3.88;;;20.30;99.90;;;;;;4980332;28;20208;-70
2021/04/18 10:08:16;;;;;;;6.72;3.65;;;19.80;99.90;;;;;;4978159;28;20248;-70
2021/04/18 10:10:42;;;;;;;5.75;3.53;;;19.10;99.90;;;;;;4978062;28;20718;-71
2021/04/18 10:13:09;;;;;;;5.15;3.40;;;19.50;99.90;;;;;;4975239;28;20280;-73
2021/04/18 10:15:50;;;;;;;6.80;3.08;;;19.90;99.90;;;;;;4975013;28;20271;-72
2021/04/18 10:18:20;;;;;;;5.40;3.65;;;20.40;99.90;;;;;;4977547;28;20193;-64
2021/04/18 10:20:46;;;;;;;4.22;3.25;;;19.70;99.90;;;;;;4982615;28;20305;-76
2021/04/18 10:23:14;;;;;;;4.97;3.10;;;19.50;99.90;;;;;;4978708;28;20632;-72
2021/04/18 10:25:42;;;;;;;6.85;3.50;;;18.90;99.90;;;;;;4973761;28;20255;-72
2021/04/18 10:28:10;;;;;;;6.13;3.10;;;18.30;99.90;;;;;;4977445;28;20244;-75
2021/04/18 10:30:38;;;;;;;8.73;3.43;;;18.40;99.90;;;;;;4976184;28;20218;-69
2021/04/18 10:33:05;;;;;;;7.07;3.50;;;18.70;99.90;;;;;;4979620;28;20316;-76
2021/04/18 10:35:32;;;;;;;8.00;3.20;;;18.80;99.90;;;;;;4980492;28;20272;-65
2021/04/18 10:37:59;;;;;;;8.52;3.35;;;18.40;99.90;;;;;;4978315;28;20202;-76
2021/04/18 10:40:27;;;;;;;7.90;3.47;;;18.30;99.90;;;;;;4976554;28;20248;-76
2021/04/18 10:42:54;;;;;;;5.97;2.85;;;18.50;99.90;;;;;;4975937;28;20214;-74
2021/04/18 10:45:21;;;;;;;5.00;3.20;;;19.10;99.90;;;;;;4978984;28;20240;-73
2021/04/18 10:47:48;;;;;;;7.68;3.13;;;19.80;99.90;;;;;;4980704;28;20201;-71
2021/04/18 10:50:14;;;;;;;6.82;3.10;;;19.70;99.90;;;;;;4979126;28;20267;-74
2021/04/18 10:52:42;;;;;;;6.20;3.33;;;19.80;99.90;;;;;;4982001;28;20206;-70
2021/04/18 10:55:10;;;;;;;4.07;2.70;;;20.10;99.90;;;;;;4980887;28;20283;-72
2021/04/18 10:57:37;;;;;;;5.93;2.78;;;20.10;99.90;;;;;;4978223;28;20232;-67
2021/04/18 11:00:06;;;;;;;6.32;3.35;;;20.00;99.90;;;;;;4982142;28;20228;-70
2021/04/18 11:02:33;;;;;;;4.28;2.72;;;19.70;99.90;;;;;;4982062;28;20783;-74
2021/04/18 11:05:00;;;;;;;3.42;3.03;;;19.60;99.90;;;;;;4984362;28;20202;-71
2021/04/18 11:07:26;;;;;;;7.20;3.08;;;19.70;99.90;;;;;;4982925;28;20256;-70
2021/04/18 11:09:53;;;;;;;5.00;2.97;;;20.00;99.90;;;;;;4975760;28;20206;-70
2021/04/18 11:12:21;;;;;;;4.50;2.90;;;20.20;99.90;;;;;;4978789;28;20295;-68
2021/04/18 11:14:47;;;;;;;6.15;3.78;;;20.10;99.90;;;;;;4977990;28;20217;-73
2021/04/18 11:17:14;;;;;;;4.57;3.28;;;19.80;99.90;;;;;;4976626;28;20206;-74
2021/04/18 11:19:40;;;;;;;6.20;2.90;;;19.40;99.90;;;;;;4979685;28;20236;-74
2021/04/18 11:22:08;;;;;;;4.65;3.20;;;19.30;99.90;;;;;;4976994;28;20606;-76
2021/04/18 11:24:34;;;;;;;7.15;4.05;;;19.70;99.90;;;;;;4978307;28;20899;-75
2021/04/18 11:27:02;;;;;;;4.72;3.30;;;19.70;99.90;;;;;;4978043;28;20202;-75
2021/04/18 11:29:28;;;;;;;6.47;3.92;;;19.70;99.90;;;;;;4976377;28;20209;-71
2021/04/18 11:31:55;;;;;;;6.32;3.28;;;20.40;99.90;;;;;;4969835;28;20232;-71
2021/04/18 11:34:22;;;;;;;7.20;3.45;;;20.40;99.90;;;;;;4975695;28;20868;-70
2021/04/18 11:36:48;;;;;;;8.60;4.07;;;20.00;99.90;;;;;;4978793;28;20264;-71
2021/04/18 11:39:15;;;;;;;9.10;4.35;;;19.70;99.90;;;;;;4976024;28;20217;-74
2021/04/18 11:41:42;;;;;;;7.13;4.13;;;19.80;99.90;;;;;;4981007;28;20201;-69
2021/04/18 11:44:09;;;;;;;8.48;4.18;;;19.20;99.90;;;;;;4969759;28;20205;-70
2021/04/18 11:46:36;;;;;;;7.93;3.88;;;18.80;99.90;;;;;;4975130;28;20206;-77
2021/04/18 11:49:02;;;;;;;5.95;3.78;;;18.90;99.90;;;;;;4977946;28;20202;-69
2021/04/18 11:51:29;;;;;;;5.53;3.95;;;19.50;99.90;;;;;;4976997;28;20209;-68
2021/04/18 11:53:55;;;;;;;8.30;4.20;;;19.70;99.90;;;;;;4976151;28;20229;-67
2021/04/18 11:56:22;;;;;;;7.00;4.10;;;19.80;99.90;;;;;;4978082;28;20205;-73
2021/04/18 11:58:48;;;;;;;7.70;4.07;;;19.50;99.90;;;;;;4978359;28;20292;-77
2021/04/18 12:01:16;;;;;;;7.07;4.00;;;20.00;99.90;;;;;;4973166;28;20603;-70
2021/04/18 12:03:42;;;;;;;6.97;3.78;;;20.30;99.90;;;;;;4978215;28;20206;-70
2021/04/18 12:06:09;;;;;;;4.97;3.50;;;20.30;99.90;;;;;;4977091;28;20293;-75
2021/04/18 12:08:36;;;;;;;8.00;4.35;;;20.50;99.90;;;;;;4978038;28;20206;-75
2021/04/18 12:11:03;;;;;;;9.85;4.75;;;20.60;99.90;;;;;;4977612;28;20213;-76
2021/04/18 12:13:30;;;;;;;5.65;4.07;;;20.30;99.90;;;;;;4980198;28;20229;-71
2021/04/18 12:15:56;;;;;;;6.57;4.32;;;19.60;99.90;;;;;;4972956;28;20439;-72
2021/04/18 12:18:25;;;;;;;6.15;3.95;;;19.10;99.90;;;;;;4973835;28;20268;-74
2021/04/18 12:20:51;;;;;;;7.18;4.13;;;19.30;99.90;;;;;;4980621;28;20336;-73
2021/04/18 12:23:18;;;;;;;6.60;4.32;;;19.70;99.90;;;;;;4981825;28;20202;-74
2021/04/18 12:25:45;;;;;;;7.15;4.72;;;20.10;99.90;;;;;;4975550;28;20210;-75
2021/04/18 12:28:11;;;;;;;8.38;4.13;;;20.40;99.90;;;;;;4988570;28;20840;-75
2021/04/18 12:30:38;;;;;;;10.13;4.93;;;20.10;99.90;;;;;;4987364;28;20260;-75
2021/04/18 12:33:05;;;;;;;7.53;4.45;;;20.20;99.90;;;;;;4984849;28;20213;-75
2021/04/18 12:35:32;;;;;;;9.82;5.15;;;20.30;99.90;;;;;;4987754;28;20256;-75
2021/04/18 12:37:59;;;;;;;8.18;4.60;;;20.30;99.90;;;;;;4988693;28;20626;-74
2021/04/18 12:40:26;;;;;;;6.30;4.28;;;20.60;99.90;;;;;;4989005;28;20201;-71
2021/04/18 12:42:53;;;;;;;7.65;4.80;;;21.00;99.90;;;;;;4978888;28;20663;-76
2021/04/18 12:45:19;;;;;;;6.95;4.10;;;20.60;99.90;;;;;;4986960;28;20296;-75
2021/04/18 12:47:46;;;;;;;9.38;4.55;;;20.70;99.90;;;;;;4990780;28;20198;-76